sensor_id;sensor_type;location;lat;lon;timestamp;temperature;humidity
52323;DHT22;38263;52.920;6.238;2023-09-07T00:00:48;20.10;99.90
52323;DHT22;38263;52.920;6.238;2023-09-07T00:03:14;20.20;99.90
52323;DHT22;38263;52.920;6.238;2023-09-07T00:05:40;20.20;99.90
52323;DHT22;38263;52.920;6.238;2023-09-07T00:08:06;20.20;99.90
52323;DHT22;38263;52.920;6.238;2023-09-07T00:10:32;19.90;99.90
52323;DHT22;38263;52.920;6.238;2023-09-07T00:13:01;20.20;99.90
52323;DHT22;38263;52.920;6.238;2023-09-07T00:15:27;20.40;99.90
52323;DHT22;38263;52.920;6.238;2023-09-07T00:17:53;20.20;99.90
52323;DHT22;38263;52.920;6.238;2023-09-07T00:20:19;19.90;99.90
52323;DHT22;38263;52.920;6.238;2023-09-07T00:22:47;20.20;99.90
52323;DHT22;38263;52.920;6.238;2023-09-07T00:25:13;20.20;99.90
52323;DHT22;38263;52.920;6.238;2023-09-07T00:27:39;20.00;99.90
52323;DHT22;38263;52.920;6.238;2023-09-07T00:30:05;20.10;99.90
52323;DHT22;38263;52.920;6.238;2023-09-07T00:32:38;20.00;99.90
52323;DHT22;38263;52.920;6.238;2023-09-07T00:35:04;20.10;99.90
52323;DHT22;38263;52.920;6.238;2023-09-07T00:37:31;20.10;99.90
52323;DHT22;38263;52.920;6.238;2023-09-07T00:39:56;20.20;99.90
52323;DHT22;38263;52.920;6.238;2023-09-07T00:42:22;20.00;99.90
52323;DHT22;38263;52.920;6.238;2023-09-07T00:44:47;20.00;99.90
52323;DHT22;38263;52.920;6.238;2023-09-07T00:47:14;20.10;99.90
52323;DHT22;38263;52.920;6.238;2023-09-07T00:49:40;20.00;99.90
52323;DHT22;38263;52.920;6.238;2023-09-07T00:52:08;20.10;99.90
52323;DHT22;38263;52.920;6.238;2023-09-07T00:54:35;20.10;99.90
52323;DHT22;38263;52.920;6.238;2023-09-07T00:57:04;20.00;99.90
52323;DHT22;38263;52.920;6.238;2023-09-07T00:59:31;20.00;99.90
52323;DHT22;38263;52.920;6.238;2023-09-07T01:01:57;19.90;99.90
52323;DHT22;38263;52.920;6.238;2023-09-07T01:04:22;19.90;99.90
52323;DHT22;38263;52.920;6.238;2023-09-07T01:06:55;20.00;99.90
52323;DHT22;38263;52.920;6.238;2023-09-07T01:09:24;20.00;99.90
52323;DHT22;38263;52.920;6.238;2023-09-07T01:11:50;20.00;99.90
52323;DHT22;38263;52.920;6.238;2023-09-07T01:14:16;20.00;99.90
52323;DHT22;38263;52.920;6.238;2023-09-07T01:16:42;20.00;99.90
52323;DHT22;38263;52.920;6.238;2023-09-07T01:19:08;20.00;99.90
52323;DHT22;38263;52.920;6.238;2023-09-07T01:21:38;20.00;99.90
52323;DHT22;38263;52.920;6.238;2023-09-07T01:24:06;20.10;99.90
52323;DHT22;38263;52.920;6.238;2023-09-07T01:26:33;20.00;99.90
52323;DHT22;38263;52.920;6.238;2023-09-07T01:29:00;20.00;99.90
52323;DHT22;38263;52.920;6.238;2023-09-07T01:31:26;19.90;99.90
52323;DHT22;38263;52.920;6.238;2023-09-07T01:33:52;19.90;99.90
52323;DHT22;38263;52.920;6.238;2023-09-07T01:36:17;19.80;99.90
52323;DHT22;38263;52.920;6.238;2023-09-07T01:38:43;19.90;99.90
52323;DHT22;38263;52.920;6.238;2023-09-07T01:41:08;19.80;99.90
52323;DHT22;38263;52.920;6.238;2023-09-07T01:43:35;19.70;99.90
52323;DHT22;38263;52.920;6.238;2023-09-07T01:48:26;19.90;99.90
52323;DHT22;38263;52.920;6.238;2023-09-07T01:50:53;19.80;99.90
52323;DHT22;38263;52.920;6.238;2023-09-07T01:53:19;19.80;99.90
52323;DHT22;38263;52.920;6.238;2023-09-07T01:58:10;19.50;99.90
52323;DHT22;38263;52.920;6.238;2023-09-07T02:00:37;19.40;99.90
52323;DHT22;38263;52.920;6.238;2023-09-07T02:03:04;19.30;99.90
52323;DHT22;38263;52.920;6.238;2023-09-07T02:15:15;18.90;99.90
52323;DHT22;38263;52.920;6.238;2023-09-07T02:17:41;18.90;99.90
52323;DHT22;38263;52.920;6.238;2023-09-07T02:20:11;18.70;99.90
52323;DHT22;38263;52.920;6.238;2023-09-07T02:25:02;19.00;99.90
52323;DHT22;38263;52.920;6.238;2023-09-07T02:29:54;19.10;99.90
52323;DHT22;38263;52.920;6.238;2023-09-07T02:32:20;18.90;99.90
52323;DHT22;38263;52.920;6.238;2023-09-07T02:34:45;18.80;99.90
52323;DHT22;38263;52.920;6.238;2023-09-07T02:37:11;18.70;99.90
52323;DHT22;38263;52.920;6.238;2023-09-07T02:42:03;18.40;99.90
52323;DHT22;38263;52.920;6.238;2023-09-07T02:44:29;18.70;99.90
52323;DHT22;38263;52.920;6.238;2023-09-07T02:56:38;18.40;99.90
52323;DHT22;38263;52.920;6.238;2023-09-07T03:11:14;18.30;99.90
52323;DHT22;38263;52.920;6.238;2023-09-07T03:13:39;18.20;99.90
52323;DHT22;38263;52.920;6.238;2023-09-07T03:16:05;18.20;99.90
52323;DHT22;38263;52.920;6.238;2023-09-07T03:18:31;17.30;99.90
52323;DHT22;38263;52.920;6.238;2023-09-07T03:20:59;17.90;99.90
52323;DHT22;38263;52.920;6.238;2023-09-07T03:25:51;17.70;99.90
52323;DHT22;38263;52.920;6.238;2023-09-07T03:28:17;17.70;99.90
52323;DHT22;38263;52.920;6.238;2023-09-07T03:33:08;17.60;99.90
52323;DHT22;38263;52.920;6.238;2023-09-07T03:35:34;17.60;99.90
52323;DHT22;38263;52.920;6.238;2023-09-07T03:37:59;17.60;99.90
52323;DHT22;38263;52.920;6.238;2023-09-07T03:40:25;17.50;99.90
52323;DHT22;38263;52.920;6.238;2023-09-07T03:47:42;17.50;99.90
52323;DHT22;38263;52.920;6.238;2023-09-07T03:50:08;17.40;99.90
52323;DHT22;38263;52.920;6.238;2023-09-07T03:55:00;17.60;99.90
52323;DHT22;38263;52.920;6.238;2023-09-07T03:57:27;17.80;99.90
52323;DHT22;38263;52.920;6.238;2023-09-07T03:59:53;17.90;99.90
52323;DHT22;38263;52.920;6.238;2023-09-07T04:04:50;17.90;99.90
52323;DHT22;38263;52.920;6.238;2023-09-07T04:09:43;17.90;99.90
52323;DHT22;38263;52.920;6.238;2023-09-07T04:12:09;17.60;99.90
52323;DHT22;38263;52.920;6.238;2023-09-07T04:21:53;17.20;99.90
52323;DHT22;38263;52.920;6.238;2023-09-07T04:26:47;17.20;99.90
52323;DHT22;38263;52.920;6.238;2023-09-07T04:31:38;17.10;99.90
52323;DHT22;38263;52.920;6.238;2023-09-07T04:43:49;17.10;99.90
52323;DHT22;38263;52.920;6.238;2023-09-07T04:48:41;17.60;99.90
52323;DHT22;38263;52.920;6.238;2023-09-07T04:51:08;17.60;99.90
52323;DHT22;38263;52.920;6.238;2023-09-07T04:53:35;16.90;99.90
52323;DHT22;38263;52.920;6.238;2023-09-07T04:56:05;17.70;99.90
52323;DHT22;38263;52.920;6.238;2023-09-07T05:01:06;17.70;99.90
52323;DHT22;38263;52.920;6.238;2023-09-07T05:10:55;17.80;99.90
52323;DHT22;38263;52.920;6.238;2023-09-07T05:15:49;17.60;99.90
52323;DHT22;38263;52.920;6.238;2023-09-07T05:18:15;17.70;99.90
52323;DHT22;38263;52.920;6.238;2023-09-07T05:32:50;17.60;99.90
52323;DHT22;38263;52.920;6.238;2023-09-07T05:37:42;17.60;99.90
52323;DHT22;38263;52.920;6.238;2023-09-07T05:40:08;17.80;99.90
52323;DHT22;38263;52.920;6.238;2023-09-07T05:45:00;17.90;99.90
52323;DHT22;38263;52.920;6.238;2023-09-07T05:59:35;18.50;99.90
52323;DHT22;38263;52.920;6.238;2023-09-07T06:02:01;18.40;99.90
52323;DHT22;38263;52.920;6.238;2023-09-07T06:06:52;18.60;99.90
52323;DHT22;38263;52.920;6.238;2023-09-07T06:14:10;19.40;99.90
52323;DHT22;38263;52.920;6.238;2023-09-07T06:16:37;19.70;99.90
52323;DHT22;38263;52.920;6.238;2023-09-07T06:19:02;19.90;99.90
52323;DHT22;38263;52.920;6.238;2023-09-07T06:21:28;19.80;99.90
52323;DHT22;38263;52.920;6.238;2023-09-07T06:23:53;21.60;99.90
52323;DHT22;38263;52.920;6.238;2023-09-07T06:26:19;20.40;99.90
52323;DHT22;38263;52.920;6.238;2023-09-07T06:28:45;20.80;99.90
52323;DHT22;38263;52.920;6.238;2023-09-07T06:31:10;21.00;99.90
52323;DHT22;38263;52.920;6.238;2023-09-07T06:33:36;21.00;99.90
52323;DHT22;38263;52.920;6.238;2023-09-07T06:36:01;21.50;99.90
52323;DHT22;38263;52.920;6.238;2023-09-07T06:38:28;21.90;99.90
52323;DHT22;38263;52.920;6.238;2023-09-07T06:40:53;21.90;99.90
52323;DHT22;38263;52.920;6.238;2023-09-07T06:43:19;22.00;99.90
52323;DHT22;38263;52.920;6.238;2023-09-07T06:45:44;21.80;99.90
52323;DHT22;38263;52.920;6.238;2023-09-07T06:48:10;22.30;99.90
52323;DHT22;38263;52.920;6.238;2023-09-07T06:50:35;22.60;99.90
52323;DHT22;38263;52.920;6.238;2023-09-07T06:53:01;22.80;99.90
52323;DHT22;38263;52.920;6.238;2023-09-07T06:55:30;22.70;99.90
52323;DHT22;38263;52.920;6.238;2023-09-07T06:57:56;23.50;99.90
52323;DHT22;38263;52.920;6.238;2023-09-07T07:00:21;22.40;99.90
52323;DHT22;38263;52.920;6.238;2023-09-07T07:02:47;22.00;99.90
52323;DHT22;38263;52.920;6.238;2023-09-07T07:05:15;22.10;99.90
52323;DHT22;38263;52.920;6.238;2023-09-07T07:07:40;22.20;99.90
52323;DHT22;38263;52.920;6.238;2023-09-07T07:10:07;24.30;99.90
52323;DHT22;38263;52.920;6.238;2023-09-07T07:12:32;22.30;99.90
52323;DHT22;38263;52.920;6.238;2023-09-07T07:15:04;21.90;99.90
52323;DHT22;38263;52.920;6.238;2023-09-07T07:17:30;22.30;99.90
52323;DHT22;38263;52.920;6.238;2023-09-07T07:19:55;23.40;99.90
52323;DHT22;38263;52.920;6.238;2023-09-07T07:22:21;22.50;99.90
52323;DHT22;38263;52.920;6.238;2023-09-07T07:24:46;22.30;99.90
52323;DHT22;38263;52.920;6.238;2023-09-07T07:27:12;22.30;99.90
52323;DHT22;38263;52.920;6.238;2023-09-07T07:29:37;22.40;99.90
52323;DHT22;38263;52.920;6.238;2023-09-07T07:32:03;22.40;99.90
52323;DHT22;38263;52.920;6.238;2023-09-07T07:34:29;22.90;99.90
52323;DHT22;38263;52.920;6.238;2023-09-07T07:36:55;22.70;99.90
52323;DHT22;38263;52.920;6.238;2023-09-07T07:39:20;23.40;99.90
52323;DHT22;38263;52.920;6.238;2023-09-07T07:41:46;22.50;99.90
52323;DHT22;38263;52.920;6.238;2023-09-07T07:44:12;22.70;99.90
52323;DHT22;38263;52.920;6.238;2023-09-07T07:46:37;22.60;99.90
52323;DHT22;38263;52.920;6.238;2023-09-07T07:49:03;22.50;99.90
52323;DHT22;38263;52.920;6.238;2023-09-07T07:51:29;22.50;99.90
52323;DHT22;38263;52.920;6.238;2023-09-07T07:53:55;22.20;99.90
52323;DHT22;38263;52.920;6.238;2023-09-07T07:56:24;23.90;99.90
52323;DHT22;38263;52.920;6.238;2023-09-07T07:58:50;22.50;99.90
52323;DHT22;38263;52.920;6.238;2023-09-07T08:01:17;22.30;99.90
52323;DHT22;38263;52.920;6.238;2023-09-07T08:03:43;22.50;99.90
52323;DHT22;38263;52.920;6.238;2023-09-07T08:06:09;22.40;99.90
52323;DHT22;38263;52.920;6.238;2023-09-07T08:08:36;22.40;99.90
52323;DHT22;38263;52.920;6.238;2023-09-07T08:11:01;22.30;99.90
52323;DHT22;38263;52.920;6.238;2023-09-07T08:13:32;22.40;99.90
52323;DHT22;38263;52.920;6.238;2023-09-07T08:15:58;22.20;99.90
52323;DHT22;38263;52.920;6.238;2023-09-07T08:18:23;22.50;99.90
52323;DHT22;38263;52.920;6.238;2023-09-07T08:20:49;22.40;99.90
52323;DHT22;38263;52.920;6.238;2023-09-07T08:23:15;22.80;99.90
52323;DHT22;38263;52.920;6.238;2023-09-07T08:25:40;22.70;99.90
52323;DHT22;38263;52.920;6.238;2023-09-07T08:28:10;22.50;99.90
52323;DHT22;38263;52.920;6.238;2023-09-07T08:30:36;22.70;99.90
52323;DHT22;38263;52.920;6.238;2023-09-07T08:33:02;22.90;99.90
52323;DHT22;38263;52.920;6.238;2023-09-07T08:35:30;23.00;99.90
52323;DHT22;38263;52.920;6.238;2023-09-07T08:38:03;23.10;99.90
52323;DHT22;38263;52.920;6.238;2023-09-07T08:40:34;23.10;99.90
52323;DHT22;38263;52.920;6.238;2023-09-07T08:43:04;23.30;99.90
52323;DHT22;38263;52.920;6.238;2023-09-07T08:45:31;23.20;99.90
52323;DHT22;38263;52.920;6.238;2023-09-07T08:48:02;23.20;99.90
52323;DHT22;38263;52.920;6.238;2023-09-07T08:50:30;23.30;99.90
52323;DHT22;38263;52.920;6.238;2023-09-07T08:52:56;23.40;99.90
52323;DHT22;38263;52.920;6.238;2023-09-07T08:55:25;23.40;99.90
52323;DHT22;38263;52.920;6.238;2023-09-07T08:57:51;23.50;99.90
52323;DHT22;38263;52.920;6.238;2023-09-07T09:00:17;23.80;99.90
52323;DHT22;38263;52.920;6.238;2023-09-07T09:02:45;23.80;99.90
52323;DHT22;38263;52.920;6.238;2023-09-07T09:05:12;24.00;99.90
52323;DHT22;38263;52.920;6.238;2023-09-07T09:07:39;23.90;99.90
52323;DHT22;38263;52.920;6.238;2023-09-07T09:10:09;24.50;99.90
52323;DHT22;38263;52.920;6.238;2023-09-07T09:12:35;24.70;99.90
52323;DHT22;38263;52.920;6.238;2023-09-07T09:15:01;25.90;99.90
52323;DHT22;38263;52.920;6.238;2023-09-07T09:17:29;26.20;99.90
52323;DHT22;38263;52.920;6.238;2023-09-07T09:19:54;24.70;99.90
52323;DHT22;38263;52.920;6.238;2023-09-07T09:22:20;24.80;99.90
52323;DHT22;38263;52.920;6.238;2023-09-07T09:24:49;25.00;99.90
52323;DHT22;38263;52.920;6.238;2023-09-07T09:27:14;24.80;99.90
52323;DHT22;38263;52.920;6.238;2023-09-07T09:29:40;26.30;99.90
52323;DHT22;38263;52.920;6.238;2023-09-07T09:32:13;25.20;99.90
52323;DHT22;38263;52.920;6.238;2023-09-07T09:34:39;25.50;99.90
52323;DHT22;38263;52.920;6.238;2023-09-07T09:37:13;25.40;99.90
52323;DHT22;38263;52.920;6.238;2023-09-07T09:39:39;25.60;99.90
52323;DHT22;38263;52.920;6.238;2023-09-07T09:42:05;25.80;99.90
52323;DHT22;38263;52.920;6.238;2023-09-07T09:44:32;26.00;99.90
52323;DHT22;38263;52.920;6.238;2023-09-07T09:46:59;26.30;99.90
52323;DHT22;38263;52.920;6.238;2023-09-07T09:49:24;25.70;99.90
52323;DHT22;38263;52.920;6.238;2023-09-07T09:51:51;26.10;99.90
52323;DHT22;38263;52.920;6.238;2023-09-07T09:54:18;26.10;99.90
52323;DHT22;38263;52.920;6.238;2023-09-07T09:56:43;26.40;99.90
52323;DHT22;38263;52.920;6.238;2023-09-07T09:59:10;26.30;99.90
52323;DHT22;38263;52.920;6.238;2023-09-07T10:01:43;27.90;99.90
52323;DHT22;38263;52.920;6.238;2023-09-07T10:04:11;26.50;99.90
52323;DHT22;38263;52.920;6.238;2023-09-07T10:06:38;26.60;99.90
52323;DHT22;38263;52.920;6.238;2023-09-07T10:09:05;26.80;99.90
52323;DHT22;38263;52.920;6.238;2023-09-07T10:11:39;26.60;99.90
52323;DHT22;38263;52.920;6.238;2023-09-07T10:14:06;28.10;99.90
52323;DHT22;38263;52.920;6.238;2023-09-07T10:16:42;26.20;99.90
52323;DHT22;38263;52.920;6.238;2023-09-07T10:19:22;26.70;99.90
52323;DHT22;38263;52.920;6.238;2023-09-07T10:21:48;26.50;99.90
52323;DHT22;38263;52.920;6.238;2023-09-07T10:24:31;26.50;99.90
52323;DHT22;38263;52.920;6.238;2023-09-07T10:27:08;27.40;99.90
52323;DHT22;38263;52.920;6.238;2023-09-07T10:29:46;27.40;99.90
52323;DHT22;38263;52.920;6.238;2023-09-07T10:32:13;27.80;99.90
52323;DHT22;38263;52.920;6.238;2023-09-07T10:34:40;26.80;99.90
52323;DHT22;38263;52.920;6.238;2023-09-07T10:37:15;27.40;99.90
52323;DHT22;38263;52.920;6.238;2023-09-07T10:39:45;28.10;99.90
52323;DHT22;38263;52.920;6.238;2023-09-07T10:42:36;28.00;99.90
52323;DHT22;38263;52.920;6.238;2023-09-07T10:45:18;25.20;99.90
52323;DHT22;38263;52.920;6.238;2023-09-07T10:47:43;26.50;99.90
52323;DHT22;38263;52.920;6.238;2023-09-07T10:50:11;28.60;99.90
52323;DHT22;38263;52.920;6.238;2023-09-07T10:52:38;28.20;99.90
52323;DHT22;38263;52.920;6.238;2023-09-07T10:55:06;28.10;99.90
52323;DHT22;38263;52.920;6.238;2023-09-07T10:57:31;26.40;99.90
52323;DHT22;38263;52.920;6.238;2023-09-07T11:00:00;27.60;99.90
52323;DHT22;38263;52.920;6.238;2023-09-07T11:02:28;26.30;99.90
52323;DHT22;38263;52.920;6.238;2023-09-07T11:04:54;29.00;99.90
52323;DHT22;38263;52.920;6.238;2023-09-07T11:07:21;27.80;99.90
52323;DHT22;38263;52.920;6.238;2023-09-07T11:09:51;28.20;99.90
52323;DHT22;38263;52.920;6.238;2023-09-07T11:12:20;26.00;99.90
52323;DHT22;38263;52.920;6.238;2023-09-07T11:14:53;27.20;99.90
52323;DHT22;38263;52.920;6.238;2023-09-07T11:17:19;28.50;99.90
52323;DHT22;38263;52.920;6.238;2023-09-07T11:19:54;27.10;99.90
52323;DHT22;38263;52.920;6.238;2023-09-07T11:22:20;24.30;99.90
52323;DHT22;38263;52.920;6.238;2023-09-07T11:24:46;26.80;99.90
52323;DHT22;38263;52.920;6.238;2023-09-07T11:27:12;26.70;99.90
52323;DHT22;38263;52.920;6.238;2023-09-07T11:29:37;26.70;99.90
52323;DHT22;38263;52.920;6.238;2023-09-07T11:32:11;26.80;99.90
52323;DHT22;38263;52.920;6.238;2023-09-07T11:34:47;26.60;99.90
52323;DHT22;38263;52.920;6.238;2023-09-07T11:37:14;28.10;99.90
52323;DHT22;38263;52.920;6.238;2023-09-07T11:39:40;26.60;99.90
52323;DHT22;38263;52.920;6.238;2023-09-07T11:42:05;26.90;99.90
52323;DHT22;38263;52.920;6.238;2023-09-07T11:44:31;27.00;99.90
52323;DHT22;38263;52.920;6.238;2023-09-07T11:46:56;27.10;99.90
52323;DHT22;38263;52.920;6.238;2023-09-07T11:49:22;27.30;99.90
52323;DHT22;38263;52.920;6.238;2023-09-07T11:51:47;26.90;99.90
52323;DHT22;38263;52.920;6.238;2023-09-07T11:54:13;27.30;99.90
52323;DHT22;38263;52.920;6.238;2023-09-07T11:56:38;26.90;99.90
52323;DHT22;38263;52.920;6.238;2023-09-07T11:59:08;28.60;99.90
52323;DHT22;38263;52.920;6.238;2023-09-07T12:01:35;27.20;99.90
52323;DHT22;38263;52.920;6.238;2023-09-07T12:04:00;27.00;99.90
52323;DHT22;38263;52.920;6.238;2023-09-07T12:06:26;27.10;99.90
52323;DHT22;38263;52.920;6.238;2023-09-07T12:09:05;27.20;99.90
52323;DHT22;38263;52.920;6.238;2023-09-07T12:11:37;27.30;99.90
52323;DHT22;38263;52.920;6.238;2023-09-07T12:14:03;27.40;99.90
52323;DHT22;38263;52.920;6.238;2023-09-07T12:16:29;27.60;99.90
52323;DHT22;38263;52.920;6.238;2023-09-07T12:18:56;27.40;99.90
52323;DHT22;38263;52.920;6.238;2023-09-07T12:21:21;27.50;99.90
52323;DHT22;38263;52.920;6.238;2023-09-07T12:23:47;27.60;99.90
52323;DHT22;38263;52.920;6.238;2023-09-07T12:26:13;27.20;99.90
52323;DHT22;38263;52.920;6.238;2023-09-07T12:28:39;27.70;99.90
52323;DHT22;38263;52.920;6.238;2023-09-07T12:31:05;27.30;99.90
52323;DHT22;38263;52.920;6.238;2023-09-07T12:33:30;28.20;99.90
52323;DHT22;38263;52.920;6.238;2023-09-07T12:35:58;27.70;99.90
52323;DHT22;38263;52.920;6.238;2023-09-07T12:38:23;27.70;99.90
52323;DHT22;38263;52.920;6.238;2023-09-07T12:40:54;28.00;99.90
52323;DHT22;38263;52.920;6.238;2023-09-07T12:43:19;28.10;99.90
52323;DHT22;38263;52.920;6.238;2023-09-07T12:45:48;29.80;99.90
52323;DHT22;38263;52.920;6.238;2023-09-07T12:48:13;29.10;99.90
52323;DHT22;38263;52.920;6.238;2023-09-07T12:50:39;27.80;99.90
52323;DHT22;38263;52.920;6.238;2023-09-07T12:53:05;27.80;99.90
52323;DHT22;38263;52.920;6.238;2023-09-07T12:55:31;28.00;99.90
52323;DHT22;38263;52.920;6.238;2023-09-07T12:57:58;27.50;99.90
52323;DHT22;38263;52.920;6.238;2023-09-07T13:00:24;28.50;99.90
52323;DHT22;38263;52.920;6.238;2023-09-07T13:02:50;27.70;99.90
52323;DHT22;38263;52.920;6.238;2023-09-07T13:05:15;27.70;99.90
52323;DHT22;38263;52.920;6.238;2023-09-07T13:07:41;28.00;99.90
52323;DHT22;38263;52.920;6.238;2023-09-07T13:10:09;28.00;99.90
52323;DHT22;38263;52.920;6.238;2023-09-07T13:12:36;27.80;99.90
52323;DHT22;38263;52.920;6.238;2023-09-07T13:15:02;28.60;99.90
52323;DHT22;38263;52.920;6.238;2023-09-07T13:17:28;27.90;99.90
52323;DHT22;38263;52.920;6.238;2023-09-07T13:19:53;27.70;99.90
52323;DHT22;38263;52.920;6.238;2023-09-07T13:22:19;27.70;99.90
52323;DHT22;38263;52.920;6.238;2023-09-07T13:24:44;27.80;99.90
52323;DHT22;38263;52.920;6.238;2023-09-07T13:27:10;29.20;99.90
52323;DHT22;38263;52.920;6.238;2023-09-07T13:29:35;27.70;99.90
52323;DHT22;38263;52.920;6.238;2023-09-07T13:32:01;27.70;99.90
52323;DHT22;38263;52.920;6.238;2023-09-07T13:34:27;27.70;99.90
52323;DHT22;38263;52.920;6.238;2023-09-07T13:36:53;27.70;99.90
52323;DHT22;38263;52.920;6.238;2023-09-07T13:39:19;27.90;99.90
52323;DHT22;38263;52.920;6.238;2023-09-07T13:41:45;27.60;99.90
52323;DHT22;38263;52.920;6.238;2023-09-07T13:44:11;29.00;99.90
52323;DHT22;38263;52.920;6.238;2023-09-07T13:46:37;27.80;99.90
52323;DHT22;38263;52.920;6.238;2023-09-07T13:49:03;28.40;99.90
52323;DHT22;38263;52.920;6.238;2023-09-07T13:51:29;27.90;99.90
52323;DHT22;38263;52.920;6.238;2023-09-07T13:53:57;27.90;99.90
52323;DHT22;38263;52.920;6.238;2023-09-07T13:56:22;27.90;99.90
52323;DHT22;38263;52.920;6.238;2023-09-07T13:58:48;27.90;99.90
52323;DHT22;38263;52.920;6.238;2023-09-07T14:01:13;28.00;99.90
52323;DHT22;38263;52.920;6.238;2023-09-07T14:03:39;27.60;99.90
52323;DHT22;38263;52.920;6.238;2023-09-07T14:06:04;27.70;99.90
52323;DHT22;38263;52.920;6.238;2023-09-07T14:08:30;27.70;99.90
52323;DHT22;38263;52.920;6.238;2023-09-07T14:10:58;27.70;99.90
52323;DHT22;38263;52.920;6.238;2023-09-07T14:13:24;27.80;99.90
52323;DHT22;38263;52.920;6.238;2023-09-07T14:15:49;27.50;99.90
52323;DHT22;38263;52.920;6.238;2023-09-07T14:18:15;28.50;99.90
52323;DHT22;38263;52.920;6.238;2023-09-07T14:20:40;27.50;99.90
52323;DHT22;38263;52.920;6.238;2023-09-07T14:23:06;28.50;99.90
52323;DHT22;38263;52.920;6.238;2023-09-07T14:25:31;29.30;99.90
52323;DHT22;38263;52.920;6.238;2023-09-07T14:27:57;27.50;99.90
52323;DHT22;38263;52.920;6.238;2023-09-07T14:30:23;29.50;99.90
52323;DHT22;38263;52.920;6.238;2023-09-07T14:32:49;27.60;99.90
52323;DHT22;38263;52.920;6.238;2023-09-07T14:35:15;27.60;99.90
52323;DHT22;38263;52.920;6.238;2023-09-07T14:37:41;27.60;99.90
52323;DHT22;38263;52.920;6.238;2023-09-07T14:40:07;27.30;99.90
52323;DHT22;38263;52.920;6.238;2023-09-07T14:42:33;27.60;99.90
52323;DHT22;38263;52.920;6.238;2023-09-07T14:44:59;27.50;99.90
52323;DHT22;38263;52.920;6.238;2023-09-07T14:47:27;27.70;99.90
52323;DHT22;38263;52.920;6.238;2023-09-07T14:49:53;27.40;99.90
52323;DHT22;38263;52.920;6.238;2023-09-07T14:52:19;27.50;99.90
52323;DHT22;38263;52.920;6.238;2023-09-07T14:54:47;27.70;99.90
52323;DHT22;38263;52.920;6.238;2023-09-07T14:57:12;27.70;99.90
52323;DHT22;38263;52.920;6.238;2023-09-07T14:59:38;27.70;99.90
52323;DHT22;38263;52.920;6.238;2023-09-07T15:02:05;27.30;99.90
52323;DHT22;38263;52.920;6.238;2023-09-07T15:04:31;27.70;99.90
52323;DHT22;38263;52.920;6.238;2023-09-07T15:06:57;28.00;99.90
52323;DHT22;38263;52.920;6.238;2023-09-07T15:09:23;28.00;99.90
52323;DHT22;38263;52.920;6.238;2023-09-07T15:11:48;28.60;99.90
52323;DHT22;38263;52.920;6.238;2023-09-07T15:14:14;29.40;99.90
52323;DHT22;38263;52.920;6.238;2023-09-07T15:16:39;28.40;99.90
52323;DHT22;38263;52.920;6.238;2023-09-07T15:19:06;27.90;99.90
52323;DHT22;38263;52.920;6.238;2023-09-07T15:21:32;29.80;99.90
52323;DHT22;38263;52.920;6.238;2023-09-07T15:23:58;28.10;99.90
52323;DHT22;38263;52.920;6.238;2023-09-07T15:26:23;28.10;99.90
52323;DHT22;38263;52.920;6.238;2023-09-07T15:28:49;28.10;99.90
52323;DHT22;38263;52.920;6.238;2023-09-07T15:31:14;27.90;99.90
52323;DHT22;38263;52.920;6.238;2023-09-07T15:33:40;28.20;99.90
52323;DHT22;38263;52.920;6.238;2023-09-07T15:36:06;28.30;99.90
52323;DHT22;38263;52.920;6.238;2023-09-07T15:38:31;28.10;99.90
52323;DHT22;38263;52.920;6.238;2023-09-07T15:40:57;28.10;99.90
52323;DHT22;38263;52.920;6.238;2023-09-07T15:43:24;30.10;99.90
52323;DHT22;38263;52.920;6.238;2023-09-07T15:45:49;28.10;99.90
52323;DHT22;38263;52.920;6.238;2023-09-07T15:48:15;30.80;99.90
52323;DHT22;38263;52.920;6.238;2023-09-07T15:50:40;29.10;99.90
52323;DHT22;38263;52.920;6.238;2023-09-07T15:53:07;28.90;99.90
52323;DHT22;38263;52.920;6.238;2023-09-07T15:55:33;28.70;99.90
52323;DHT22;38263;52.920;6.238;2023-09-07T15:57:59;28.50;99.90
52323;DHT22;38263;52.920;6.238;2023-09-07T16:00:24;29.20;99.90
52323;DHT22;38263;52.920;6.238;2023-09-07T16:02:50;28.40;99.90
52323;DHT22;38263;52.920;6.238;2023-09-07T16:05:16;28.40;99.90
52323;DHT22;38263;52.920;6.238;2023-09-07T16:07:41;29.00;99.90
52323;DHT22;38263;52.920;6.238;2023-09-07T16:10:07;27.80;99.90
52323;DHT22;38263;52.920;6.238;2023-09-07T16:12:33;27.90;99.90
52323;DHT22;38263;52.920;6.238;2023-09-07T16:14:59;28.00;99.90
52323;DHT22;38263;52.920;6.238;2023-09-07T16:17:24;28.00;99.90
52323;DHT22;38263;52.920;6.238;2023-09-07T16:19:50;27.80;99.90
52323;DHT22;38263;52.920;6.238;2023-09-07T16:22:17;27.80;99.90
52323;DHT22;38263;52.920;6.238;2023-09-07T16:24:43;29.40;99.90
52323;DHT22;38263;52.920;6.238;2023-09-07T16:27:08;27.70;99.90
52323;DHT22;38263;52.920;6.238;2023-09-07T16:29:34;27.60;99.90
52323;DHT22;38263;52.920;6.238;2023-09-07T16:31:59;27.50;99.90
52323;DHT22;38263;52.920;6.238;2023-09-07T16:34:25;27.50;99.90
52323;DHT22;38263;52.920;6.238;2023-09-07T16:40:41;27.60;99.90
52323;DHT22;38263;52.920;6.238;2023-09-07T16:43:06;27.00;99.90
52323;DHT22;38263;52.920;6.238;2023-09-07T16:45:32;27.20;99.90
52323;DHT22;38263;52.920;6.238;2023-09-07T16:47:57;27.10;99.90
52323;DHT22;38263;52.920;6.238;2023-09-07T16:50:23;27.00;99.90
52323;DHT22;38263;52.920;6.238;2023-09-07T16:52:48;26.90;99.90
52323;DHT22;38263;52.920;6.238;2023-09-07T16:55:14;28.10;99.90
52323;DHT22;38263;52.920;6.238;2023-09-07T16:57:40;27.30;99.90
52323;DHT22;38263;52.920;6.238;2023-09-07T17:00:06;27.00;99.90
52323;DHT22;38263;52.920;6.238;2023-09-07T17:02:33;26.90;99.90
52323;DHT22;38263;52.920;6.238;2023-09-07T17:04:58;28.40;99.90
52323;DHT22;38263;52.920;6.238;2023-09-07T17:07:24;26.70;99.90
52323;DHT22;38263;52.920;6.238;2023-09-07T17:09:50;26.70;99.90
52323;DHT22;38263;52.920;6.238;2023-09-07T17:12:16;26.80;99.90
52323;DHT22;38263;52.920;6.238;2023-09-07T17:14:41;26.80;99.90
52323;DHT22;38263;52.920;6.238;2023-09-07T17:17:07;26.60;99.90
52323;DHT22;38263;52.920;6.238;2023-09-07T17:19:33;26.20;99.90
52323;DHT22;38263;52.920;6.238;2023-09-07T17:21:59;26.30;99.90
52323;DHT22;38263;52.920;6.238;2023-09-07T17:24:25;26.50;99.90
52323;DHT22;38263;52.920;6.238;2023-09-07T17:26:50;26.00;99.90
52323;DHT22;38263;52.920;6.238;2023-09-07T17:29:17;26.20;99.90
52323;DHT22;38263;52.920;6.238;2023-09-07T17:31:43;25.70;99.90
52323;DHT22;38263;52.920;6.238;2023-09-07T17:34:08;25.70;99.90
52323;DHT22;38263;52.920;6.238;2023-09-07T17:36:34;25.80;99.90
52323;DHT22;38263;52.920;6.238;2023-09-07T17:39:00;25.70;99.90
52323;DHT22;38263;52.920;6.238;2023-09-07T17:41:29;25.80;99.90
52323;DHT22;38263;52.920;6.238;2023-09-07T17:43:55;25.80;99.90